Time;durP1;ratioP1;P1;durP2;ratioP2;P2;SDS_P1;SDS_P2;PMS_P1;PMS_P2;Temp;Humidity;BMP_temperature;BMP_pressure;BME280_temperature;BME280_humidity;BME280_pressure;Samples;Min_cycle;Max_cycle;Signal;HPM_P1;HPM_P2
2024/01/03 00:01:24;;;;;;;1.57;0.70;;;;;;;11.69;75.69;98113.97;5017426;28;20199;-80
2024/01/03 00:03:53;;;;;;;1.00;0.60;;;;;;;11.60;76.58;98108.47;5016893;28;20674;-80
2024/01/03 00:06:19;;;;;;;1.70;0.63;;;;;;;11.68;76.75;98111.44;5017341;28;20639;-80
2024/01/03 00:08:46;;;;;;;3.03;1.10;;;;;;;11.75;77.63;98099.66;5018086;28;20253;-79
2024/01/03 00:11:19;;;;;;;0.90;0.63;;;;;;;11.76;78.21;98072.63;5017695;28;20231;-79
2024/01/03 00:14:04;;;;;;;1.37;0.50;;;;;;;11.81;78.42;98069.72;5018096;28;20625;-79
2024/01/03 00:16:31;;;;;;;3.17;0.50;;;;;;;11.65;78.78;98039.28;5016772;28;20227;-80
2024/01/03 00:18:59;;;;;;;1.83;0.60;;;;;;;11.72;78.85;98030.16;5016613;28;20210;-79
2024/01/03 00:21:27;;;;;;;1.70;0.50;;;;;;;11.74;79.38;98024.81;5017343;28;20211;-79
2024/01/03 00:23:55;;;;;;;1.30;0.90;;;;;;;11.77;78.81;98015.94;5017100;28;20214;-80
2024/01/03 00:26:24;;;;;;;2.17;0.60;;;;;;;11.76;79.25;98017.72;5016968;28;20237;-79
2024/01/03 00:28:51;;;;;;;3.23;0.90;;;;;;;11.72;78.40;98004.00;5017067;28;20208;-78
2024/01/03 00:31:45;;;;;;;2.67;0.80;;;;;;;11.79;78.95;98007.06;5017046;28;20230;-78
2024/01/03 00:34:39;;;;;;;3.30;0.77;;;;;;;11.69;78.45;98001.59;5005757;28;20789;-78
2024/01/03 00:37:19;;;;;;;2.33;0.80;;;;;;;11.62;77.35;98031.66;5017743;28;20227;-78
2024/01/03 00:39:45;;;;;;;2.57;0.77;;;;;;;11.57;76.42;98041.53;5017180;28;20202;-79
2024/01/03 00:42:13;;;;;;;4.90;1.87;;;;;;;11.62;76.71;98054.34;5016531;28;20199;-78
2024/01/03 00:44:39;;;;;;;3.97;0.97;;;;;;;11.56;76.16;98073.00;5016493;28;20579;-79
2024/01/03 00:47:06;;;;;;;3.33;1.47;;;;;;;11.49;75.33;98083.81;5014775;28;20284;-78
2024/01/03 00:49:35;;;;;;;5.37;1.13;;;;;;;11.59;75.18;98084.09;5016276;28;20234;-78
2024/01/03 00:52:02;;;;;;;3.70;1.20;;;;;;;11.49;73.67;98140.44;5016508;28;20217;-78
2024/01/03 00:54:30;;;;;;;3.70;1.23;;;;;;;11.59;73.68;98146.78;5016062;28;20195;-78
2024/01/03 00:56:56;;;;;;;4.83;1.07;;;;;;;11.50;72.70;98163.03;5015267;28;20277;-78
2024/01/03 00:59:24;;;;;;;7.90;2.27;;;;;;;11.36;71.53;98192.59;5016564;28;20199;-78
2024/01/03 01:01:51;;;;;;;4.37;0.93;;;;;;;11.43;72.26;98227.03;5015857;28;20630;-78
2024/01/03 01:04:18;;;;;;;4.70;0.90;;;;;;;11.41;72.29;98218.44;5017150;28;20252;-78
2024/01/03 01:06:44;;;;;;;3.40;0.90;;;;;;;11.61;73.18;98206.81;5015985;28;20238;-78
2024/01/03 01:09:10;;;;;;;4.23;0.90;;;;;;;11.49;73.71;98205.75;5017184;28;20234;-78
2024/01/03 01:11:37;;;;;;;4.27;1.33;;;;;;;11.44;73.80;98198.19;5016994;28;20297;-79
2024/01/03 01:14:03;;;;;;;3.77;1.20;;;;;;;11.54;73.57;98193.28;5017926;28;20260;-78
2024/01/03 01:16:31;;;;;;;3.87;1.17;;;;;;;11.59;73.38;98182.53;5016049;28;20226;-78
2024/01/03 01:18:57;;;;;;;4.63;1.20;;;;;;;11.67;74.25;98178.56;5016391;28;20206;-78
2024/01/03 01:21:24;;;;;;;3.63;1.00;;;;;;;11.36;73.41;98202.19;5016651;28;20662;-79
2024/01/03 01:23:50;;;;;;;5.63;1.30;;;;;;;11.47;73.07;98171.88;5017784;28;20234;-79
2024/01/03 01:26:16;;;;;;;5.63;1.50;;;;;;;11.50;73.04;98212.69;5019227;28;20255;-79
2024/01/03 01:28:43;;;;;;;3.97;0.80;;;;;;;11.64;73.36;98209.25;5018962;28;20207;-79
2024/01/03 01:31:09;;;;;;;3.30;0.90;;;;;;;11.48;73.41;98197.09;5016865;28;20222;-78
2024/01/03 01:33:37;;;;;;;4.20;1.00;;;;;;;11.22;72.47;98218.63;5015006;28;20207;-77
2024/01/03 01:36:03;;;;;;;2.23;0.93;;;;;;;11.42;73.81;98201.84;5017577;28;20235;-78
2024/01/03 01:38:30;;;;;;;2.60;0.90;;;;;;;11.50;73.83;98199.63;5016965;28;20669;-78
2024/01/03 01:40:56;;;;;;;5.53;1.33;;;;;;;11.48;74.79;98177.97;5016825;28;20215;-78
2024/01/03 01:43:22;;;;;;;4.73;1.87;;;;;;;11.34;74.94;98181.41;5017525;28;20390;-78
2024/01/03 01:45:49;;;;;;;3.00;1.00;;;;;;;11.48;75.04;98147.44;5017991;28;20300;-78
2024/01/03 01:48:16;;;;;;;3.63;0.97;;;;;;;11.40;75.28;98144.47;5017292;28;20210;-78
2024/01/03 01:50:45;;;;;;;5.70;1.60;;;;;;;11.52;74.67;98142.88;5017095;28;20227;-78
2024/01/03 01:53:11;;;;;;;5.97;1.53;;;;;;;11.34;74.22;98147.44;5017324;28;20740;-79
2024/01/03 01:55:40;;;;;;;3.90;1.07;;;;;;;11.47;74.88;98137.09;5017597;28;20223;-79
2024/01/03 01:58:07;;;;;;;5.57;1.00;;;;;;;11.32;73.63;98150.13;5018124;28;20210;-79
2024/01/03 02:00:35;;;;;;;4.80;1.10;;;;;;;11.46;73.68;98169.38;5017866;28;20206;-79
2024/01/03 02:03:03;;;;;;;4.80;1.00;;;;;;;11.61;73.19;98175.47;5018207;28;20740;-79
2024/01/03 02:05:30;;;;;;;5.30;1.10;;;;;;;11.45;72.57;98196.41;5018720;28;20233;-79
2024/01/03 02:07:59;;;;;;;5.50;1.60;;;;;;;11.65;72.72;98185.63;5018373;28;20273;-79
2024/01/03 02:10:25;;;;;;;3.03;1.10;;;;;;;11.59;72.25;98216.50;5018338;28;20273;-79
2024/01/03 02:12:52;;;;;;;5.37;1.10;;;;;;;11.52;70.63;98245.63;5018408;28;20230;-79
2024/01/03 02:15:18;;;;;;;4.57;1.10;;;;;;;11.71;70.79;98237.56;5018867;28;20584;-79
2024/01/03 02:17:46;;;;;;;4.07;1.53;;;;;;;11.62;70.27;98263.38;5017475;28;20227;-79
2024/01/03 02:20:14;;;;;;;4.23;1.00;;;;;;;11.71;69.64;98266.31;5018333;28;20249;-79
2024/01/03 02:22:42;;;;;;;3.13;1.17;;;;;;;11.48;68.90;98295.53;5018972;28;20213;-79
2024/01/03 02:25:10;;;;;;;3.37;0.93;;;;;;;11.69;69.39;98316.97;5016988;28;20218;-79
2024/01/03 02:27:37;;;;;;;4.13;1.20;;;;;;;11.73;69.11;98311.47;5018562;28;20214;-79
2024/01/03 02:30:08;;;;;;;3.80;1.00;;;;;;;11.60;69.02;98334.03;5018162;28;20210;-79
2024/01/03 02:32:35;;;;;;;3.50;1.17;;;;;;;11.49;68.69;98326.78;5016942;28;20218;-79
2024/01/03 02:35:01;;;;;;;3.33;1.13;;;;;;;11.68;68.91;98336.19;5017237;28;20211;-78
2024/01/03 02:37:28;;;;;;;3.03;1.00;;;;;;;11.58;69.58;98328.03;5018014;28;20203;-78
2024/01/03 02:39:56;;;;;;;5.27;1.30;;;;;;;11.67;70.17;98321.44;5017925;28;20203;-79
2024/01/03 02:42:22;;;;;;;6.67;0.70;;;;;;;11.74;69.76;98325.38;5017539;28;20207;-79
2024/01/03 02:44:48;;;;;;;3.07;0.90;;;;;;;11.63;70.08;98317.31;5018449;28;20234;-78
2024/01/03 02:47:15;;;;;;;2.63;0.80;;;;;;;11.61;69.82;98322.63;5017758;28;20223;-79
2024/01/03 02:49:41;;;;;;;3.80;0.80;;;;;;;11.25;70.39;98307.28;5018348;28;20284;-80
2024/01/03 02:52:07;;;;;;;2.30;0.70;;;;;;;11.31;69.73;98299.09;5018199;28;20231;-80
2024/01/03 02:54:34;;;;;;;2.83;0.83;;;;;;;11.27;70.07;98287.97;5020127;28;20226;-80
2024/01/03 02:57:01;;;;;;;2.10;1.00;;;;;;;11.41;70.35;98284.56;5018769;28;20234;-80
2024/01/03 02:59:28;;;;;;;2.47;0.80;;;;;;;11.33;69.18;98265.88;5018463;28;20765;-81
2024/01/03 03:01:54;;;;;;;3.40;0.80;;;;;;;11.35;68.93;98323.28;5015413;28;20258;-80
2024/01/03 03:04:20;;;;;;;2.47;0.90;;;;;;;11.45;68.95;98316.59;5016573;28;20204;-80
2024/01/03 03:06:47;;;;;;;3.43;1.10;;;;;;;11.63;69.08;98343.44;5017502;28;20257;-80
2024/01/03 03:09:13;;;;;;;5.90;1.20;;;;;;;11.55;69.42;98330.81;5017491;28;20265;-80
2024/01/03 03:11:39;;;;;;;4.10;1.27;;;;;;;11.53;70.21;98328.31;5016388;28;20272;-80
2024/01/03 03:14:08;;;;;;;4.23;1.30;;;;;;;11.62;70.63;98316.47;5017942;28;20207;-80
2024/01/03 03:16:34;;;;;;;3.63;1.20;;;;;;;11.52;70.94;98323.16;5016644;28;20276;-80
2024/01/03 03:19:00;;;;;;;4.00;1.30;;;;;;;11.56;71.33;98302.94;5017284;28;20207;-80
2024/01/03 03:21:27;;;;;;;7.00;1.40;;;;;;;11.42;71.88;98306.34;5020031;28;20203;-80
2024/01/03 03:23:53;;;;;;;5.90;1.20;;;;;;;11.40;72.23;98287.28;5020733;28;20207;-80
2024/01/03 03:26:19;;;;;;;4.03;1.10;;;;;;;11.44;72.77;98267.91;5020415;28;20250;-80
2024/01/03 03:28:45;;;;;;;4.40;1.23;;;;;;;11.20;71.48;98252.69;5020471;28;20776;-81
2024/01/03 03:31:13;;;;;;;6.17;1.53;;;;;;;11.46;70.62;98279.94;5020854;28;20277;-80
2024/01/03 03:33:40;;;;;;;3.90;1.43;;;;;;;11.47;70.83;98299.91;5021305;28;20202;-80
2024/01/03 03:36:12;;;;;;;5.97;1.23;;;;;;;11.19;71.79;98299.78;5021338;28;20227;-81
2024/01/03 03:38:38;;;;;;;4.23;0.97;;;;;;;11.56;71.35;98280.25;5021708;28;20225;-80
2024/01/03 03:41:09;;;;;;;3.77;1.73;;;;;;;11.39;70.71;98289.03;5020749;28;20213;-80
2024/01/03 03:43:36;;;;;;;6.97;0.90;;;;;;;11.43;70.72;98313.22;5021307;28;20311;-80
2024/01/03 03:46:02;;;;;;;7.40;2.10;;;;;;;11.50;71.01;98317.19;5021481;28;20578;-80
2024/01/03 03:48:30;;;;;;;2.70;1.10;;;;;;;11.32;71.73;98299.00;5020324;28;20249;-80
2024/01/03 03:50:56;;;;;;;5.47;1.33;;;;;;;11.30;71.47;98308.69;5021097;28;20609;-80
2024/01/03 03:53:23;;;;;;;3.07;1.13;;;;;;;11.38;71.94;98299.56;5015209;28;20290;-80
2024/01/03 03:55:49;;;;;;;4.47;1.10;;;;;;;11.42;72.07;98272.38;5020559;28;20669;-81
2024/01/03 03:58:15;;;;;;;3.27;1.00;;;;;;;11.46;71.82;98276.50;5019854;28;20639;-80
2024/01/03 04:00:42;;;;;;;3.47;1.27;;;;;;;11.59;71.72;98272.22;5021400;28;20763;-80
2024/01/03 04:03:08;;;;;;;5.53;1.90;;;;;;;11.60;72.06;98276.53;5020408;28;20558;-81
2024/01/03 04:05:37;;;;;;;4.07;1.13;;;;;;;11.58;73.62;98240.97;5021068;28;20313;-80
2024/01/03 04:08:04;;;;;;;3.70;1.53;;;;;;;11.30;75.77;98195.56;5019756;28;20210;-80
2024/01/03 04:10:30;;;;;;;3.43;1.00;;;;;;;11.01;77.90;98140.63;5020157;28;20257;-80
2024/01/03 04:12:58;;;;;;;2.57;1.27;;;;;;;10.95;80.00;98082.72;5021234;28;20677;-80
2024/01/03 04:15:25;;;;;;;5.20;1.37;;;;;;;10.85;82.23;98017.19;5019667;28;20246;-80
2024/01/03 04:17:51;;;;;;;3.67;1.00;;;;;;;10.91;84.17;97947.19;5019489;28;20222;-80
2024/01/03 04:20:18;;;;;;;6.53;1.73;;;;;;;10.47;85.20;97908.94;5019354;28;20229;-80
2024/01/03 04:22:46;;;;;;;5.77;1.60;;;;;;;10.61;84.24;97884.63;5020154;28;20207;-80
2024/01/03 04:25:13;;;;;;;5.13;1.40;;;;;;;10.56;83.87;97886.69;5020045;28;20199;-80
2024/01/03 04:27:39;;;;;;;4.50;1.40;;;;;;;10.66;83.29;97866.97;5019449;28;20265;-80
2024/01/03 04:30:07;;;;;;;4.00;1.20;;;;;;;10.71;82.00;97904.03;5020203;28;20206;-80
2024/01/03 04:32:33;;;;;;;4.70;1.47;;;;;;;10.80;81.42;97923.53;5018736;28;20223;-80
2024/01/03 04:35:00;;;;;;;4.80;1.37;;;;;;;10.90;79.94;97955.94;5019535;28;20743;-80
2024/01/03 04:37:26;;;;;;;4.43;2.03;;;;;;;10.72;79.55;97962.25;5019170;28;20205;-80
2024/01/03 04:39:54;;;;;;;3.90;1.30;;;;;;;10.88;79.00;97996.97;5019773;28;20218;-80
2024/01/03 04:42:21;;;;;;;5.03;1.40;;;;;;;10.87;78.52;98025.75;5019479;28;20207;-80
2024/01/03 04:44:47;;;;;;;5.67;1.40;;;;;;;10.91;78.18;98038.53;5020929;28;20218;-80
2024/01/03 04:47:13;;;;;;;4.50;1.33;;;;;;;10.77;78.37;98045.50;5019485;28;20317;-80
2024/01/03 04:49:40;;;;;;;3.90;1.40;;;;;;;10.88;78.16;98043.94;5020487;28;20202;-81
2024/01/03 04:52:06;;;;;;;3.63;1.10;;;;;;;10.69;78.47;98057.22;5019878;28;20222;-80
2024/01/03 04:54:32;;;;;;;5.63;1.17;;;;;;;10.99;78.13;98047.69;5019903;28;20257;-80
2024/01/03 04:57:00;;;;;;;3.27;1.10;;;;;;;11.04;77.64;98056.06;5027781;28;20222;-80
2024/01/03 04:59:26;;;;;;;3.57;1.50;;;;;;;11.11;77.73;98060.84;5033387;28;20198;-80
2024/01/03 05:01:53;;;;;;;5.00;1.47;;;;;;;10.94;76.81;98074.03;5032359;28;20199;-80
2024/01/03 05:04:19;;;;;;;6.40;1.07;;;;;;;11.07;77.04;98088.06;5032621;28;20225;-79
2024/01/03 05:06:46;;;;;;;5.20;1.30;;;;;;;11.15;76.34;98100.66;5031435;28;20298;-79
2024/01/03 05:09:12;;;;;;;3.60;1.37;;;;;;;11.12;76.02;98124.38;5030405;28;20924;-79
2024/01/03 05:11:38;;;;;;;4.50;1.30;;;;;;;10.92;74.86;98139.41;5032437;28;20208;-80
2024/01/03 05:14:06;;;;;;;2.33;0.90;;;;;;;10.83;74.76;98175.63;5031157;28;20214;-79
2024/01/03 05:16:32;;;;;;;4.57;1.20;;;;;;;11.21;75.08;98176.03;5022663;28;20222;-81
2024/01/03 05:18:59;;;;;;;3.97;1.13;;;;;;;11.22;74.85;98187.31;5019008;28;20330;-80
2024/01/03 05:21:25;;;;;;;3.67;1.00;;;;;;;11.29;74.63;98192.09;5018143;28;20203;-80
2024/01/03 05:23:51;;;;;;;3.00;0.93;;;;;;;11.19;74.66;98206.59;5017004;28;20206;-80
2024/01/03 05:26:18;;;;;;;1.73;0.63;;;;;;;11.15;74.44;98227.78;5017285;28;20227;-79
2024/01/03 05:28:44;;;;;;;1.67;0.87;;;;;;;11.10;74.54;98223.66;5017847;28;20211;-78
2024/01/03 05:31:12;;;;;;;4.30;1.57;;;;;;;11.05;74.68;98214.41;5017065;28;20207;-78
2024/01/03 05:33:38;;;;;;;3.03;1.03;;;;;;;11.05;75.16;98220.44;5017113;28;20199;-79
2024/01/03 05:36:05;;;;;;;3.13;0.90;;;;;;;11.15;75.81;98204.28;5016794;28;20298;-79
2024/01/03 05:38:35;;;;;;;4.63;0.90;;;;;;;11.05;75.44;98183.06;5009291;28;20275;-79
2024/01/03 05:41:01;;;;;;;1.50;0.87;;;;;;;11.18;75.79;98197.13;5016987;28;20231;-79
2024/01/03 05:43:28;;;;;;;3.33;1.00;;;;;;;11.15;76.32;98191.22;5015942;28;20202;-79
2024/01/03 05:45:54;;;;;;;2.50;1.00;;;;;;;11.17;76.59;98171.91;5017030;28;20651;-79
2024/01/03 05:48:22;;;;;;;3.53;1.30;;;;;;;11.32;75.96;98176.25;5016915;28;20265;-79
2024/01/03 05:50:48;;;;;;;2.73;1.73;;;;;;;10.99;76.41;98199.91;5018224;28;20211;-79
2024/01/03 05:53:14;;;;;;;4.10;0.97;;;;;;;10.70;77.70;98165.88;5017532;28;20422;-79
2024/01/03 05:55:41;;;;;;;3.40;1.50;;;;;;;10.97;76.56;98154.78;5016002;28;20279;-79
2024/01/03 05:58:08;;;;;;;4.57;1.13;;;;;;;11.06;76.12;98141.22;5016322;28;20215;-79
2024/01/03 06:00:34;;;;;;;4.00;1.67;;;;;;;11.19;75.68;98174.44;5016943;28;20214;-79
2024/01/03 06:03:00;;;;;;;4.47;1.10;;;;;;;11.22;76.18;98163.81;5016651;28;20260;-79
2024/01/03 06:05:28;;;;;;;2.23;0.97;;;;;;;11.27;75.98;98159.16;5016489;28;20247;-79
2024/01/03 06:07:54;;;;;;;3.67;1.40;;;;;;;11.25;75.70;98177.53;5016592;28;20202;-79
2024/01/03 06:10:21;;;;;;;4.87;1.10;;;;;;;11.27;76.03;98178.28;5016959;28;20276;-79
2024/01/03 06:12:47;;;;;;;3.77;1.10;;;;;;;11.08;75.71;98214.22;5016957;28;20227;-80
2024/01/03 06:15:13;;;;;;;3.90;1.10;;;;;;;11.17;75.81;98200.63;5016152;28;20211;-79
2024/01/03 06:17:40;;;;;;;2.83;1.50;;;;;;;11.24;75.46;98206.38;5015771;28;20285;-78
2024/01/03 06:20:08;;;;;;;4.83;1.47;;;;;;;11.29;75.00;98199.09;5013438;28;20701;-79
2024/01/03 06:22:36;;;;;;;3.63;1.00;;;;;;;11.10;74.72;98217.59;5009711;28;20278;-78
2024/01/03 06:25:02;;;;;;;3.03;1.53;;;;;;;11.22;74.77;98227.34;5017844;28;20202;-79
2024/01/03 06:27:28;;;;;;;6.70;1.53;;;;;;;11.15;74.43;98231.22;5016300;28;20240;-79
2024/01/03 06:29:55;;;;;;;3.73;1.57;;;;;;;11.26;74.50;98226.22;5016459;28;20253;-78
2024/01/03 06:32:21;;;;;;;3.03;1.20;;;;;;;11.13;74.12;98240.91;5014843;28;20226;-78
2024/01/03 06:34:47;;;;;;;5.00;1.37;;;;;;;11.29;74.72;98259.16;5015800;28;20199;-78
2024/01/03 06:37:14;;;;;;;6.13;1.37;;;;;;;11.32;74.60;98264.22;5015412;28;20226;-78
2024/01/03 06:39:41;;;;;;;4.07;1.30;;;;;;;11.06;74.54;98263.06;5015967;28;20207;-78
2024/01/03 06:42:08;;;;;;;3.40;1.10;;;;;;;11.06;74.82;98265.66;5015532;28;20230;-78
2024/01/03 06:44:34;;;;;;;4.97;1.20;;;;;;;11.25;75.22;98236.75;5015908;28;20698;-78
2024/01/03 06:47:00;;;;;;;4.37;1.07;;;;;;;11.31;74.45;98250.28;5014764;28;20296;-78
2024/01/03 06:49:27;;;;;;;4.17;0.87;;;;;;;11.32;74.54;98280.72;5016654;28;20744;-78
2024/01/03 06:51:53;;;;;;;2.73;0.67;;;;;;;11.22;74.63;98260.44;5015520;28;20579;-78
2024/01/03 06:54:20;;;;;;;3.50;1.00;;;;;;;11.27;74.40;98258.41;5015983;28;20206;-78
2024/01/03 06:56:48;;;;;;;3.33;0.83;;;;;;;11.28;74.74;98266.16;5016448;28;20257;-77
2024/01/03 06:59:14;;;;;;;7.00;1.63;;;;;;;11.26;74.91;98254.97;5019339;28;20211;-78
2024/01/03 07:01:40;;;;;;;2.43;1.00;;;;;;;11.12;75.77;98244.47;5018439;28;20203;-78
2024/01/03 07:04:07;;;;;;;3.93;0.97;;;;;;;11.18;75.73;98258.91;5020501;28;20207;-77
2024/01/03 07:06:33;;;;;;;2.33;1.00;;;;;;;11.11;75.80;98221.88;5017526;28;20231;-77
2024/01/03 07:08:59;;;;;;;2.93;1.00;;;;;;;10.99;75.60;98230.41;5018370;28;20202;-78
2024/01/03 07:11:26;;;;;;;2.27;0.93;;;;;;;11.13;76.30;98223.47;5019241;28;20237;-77
2024/01/03 07:13:53;;;;;;;3.10;1.13;;;;;;;11.26;76.37;98223.63;5018478;28;20208;-78
2024/01/03 07:16:20;;;;;;;4.27;1.10;;;;;;;10.95;76.05;98214.06;5018436;28;20227;-77
2024/01/03 07:18:46;;;;;;;2.07;1.03;;;;;;;11.12;76.08;98231.41;5017074;28;20216;-78
2024/01/03 07:21:12;;;;;;;3.10;1.23;;;;;;;11.17;75.81;98216.31;5018094;28;20266;-78
2024/01/03 07:23:39;;;;;;;3.23;0.77;;;;;;;11.24;76.16;98222.03;5018375;28;20195;-78
2024/01/03 07:26:05;;;;;;;2.80;1.00;;;;;;;11.03;76.87;98237.13;5018667;28;20226;-78
2024/01/03 07:28:32;;;;;;;2.87;0.93;;;;;;;11.06;76.84;98198.66;5018295;28;20257;-78
2024/01/03 07:31:00;;;;;;;4.53;1.00;;;;;;;11.04;77.12;98190.06;5018845;28;20206;-78
2024/01/03 07:33:26;;;;;;;1.67;0.80;;;;;;;11.06;77.53;98193.44;5019596;28;20289;-78
2024/01/03 07:35:53;;;;;;;5.03;1.30;;;;;;;10.98;77.35;98187.81;5018776;28;20230;-78
2024/01/03 07:38:20;;;;;;;5.27;1.13;;;;;;;11.00;77.32;98195.53;5018028;28;20203;-78
2024/01/03 07:40:46;;;;;;;5.13;1.40;;;;;;;11.10;77.41;98192.31;5018147;28;20692;-78
2024/01/03 07:43:12;;;;;;;3.37;1.30;;;;;;;11.11;77.40;98196.59;5019575;28;20214;-78
2024/01/03 07:45:39;;;;;;;2.17;0.83;;;;;;;11.03;77.05;98205.81;5014620;28;20250;-77
2024/01/03 07:48:07;;;;;;;1.40;0.80;;;;;;;11.09;76.96;98221.13;5013773;28;20211;-76
2024/01/03 07:50:33;;;;;;;2.57;0.90;;;;;;;11.00;76.84;98209.44;5013910;28;20621;-77
2024/01/03 07:53:00;;;;;;;2.50;1.00;;;;;;;11.07;76.50;98215.97;5014290;28;20249;-77
2024/01/03 07:55:26;;;;;;;3.60;1.17;;;;;;;10.87;76.38;98248.44;5014727;28;20793;-77
2024/01/03 07:57:53;;;;;;;6.17;1.80;;;;;;;11.13;75.94;98239.13;5013652;28;20698;-78
2024/01/03 08:00:19;;;;;;;3.20;1.10;;;;;;;11.17;75.98;98242.41;5016266;28;20203;-78
2024/01/03 08:02:46;;;;;;;3.70;1.17;;;;;;;11.17;75.85;98247.63;5015432;28;20199;-78
2024/01/03 08:05:14;;;;;;;2.67;1.20;;;;;;;11.22;75.26;98261.28;5016257;28;20269;-77
2024/01/03 08:07:40;;;;;;;1.70;1.10;;;;;;;11.07;74.58;98270.81;5014886;28;20211;-76
2024/01/03 08:10:08;;;;;;;3.53;1.07;;;;;;;11.32;75.08;98270.28;5014893;28;20206;-78
2024/01/03 08:12:36;;;;;;;2.70;0.97;;;;;;;11.41;74.14;98276.75;5014065;28;20237;-78
2024/01/03 08:15:03;;;;;;;3.43;1.10;;;;;;;11.48;74.11;98292.91;5016004;28;20246;-78
2024/01/03 08:17:29;;;;;;;6.03;1.20;;;;;;;11.37;73.60;98303.97;5014825;28;20805;-78
2024/01/03 08:19:55;;;;;;;2.97;0.83;;;;;;;11.30;73.55;98332.22;5014979;28;20207;-78
2024/01/03 08:22:23;;;;;;;1.47;0.63;;;;;;;11.44;73.64;98331.44;5015564;28;20315;-78
2024/01/03 08:24:50;;;;;;;2.27;0.80;;;;;;;11.39;73.22;98337.84;5015880;28;20523;-78
2024/01/03 08:27:17;;;;;;;2.57;0.80;;;;;;;11.47;73.66;98346.09;5016308;28;20237;-78
2024/01/03 08:29:44;;;;;;;3.93;1.43;;;;;;;11.44;73.84;98333.22;5015332;28;20216;-78
2024/01/03 08:32:10;;;;;;;1.97;0.70;;;;;;;11.61;73.72;98330.47;5015205;28;20227;-78
2024/01/03 08:34:37;;;;;;;3.77;0.70;;;;;;;11.31;73.58;98353.94;5015175;28;20555;-78
2024/01/03 08:37:03;;;;;;;2.87;0.90;;;;;;;11.36;74.64;98345.84;5014789;28;20314;-78
2024/01/03 08:39:31;;;;;;;2.37;0.83;;;;;;;11.18;74.54;98321.59;5015173;28;20210;-79
2024/01/03 08:41:57;;;;;;;2.00;0.97;;;;;;;11.45;74.80;98304.38;5015389;28;20253;-78
2024/01/03 08:44:24;;;;;;;2.40;0.97;;;;;;;11.42;74.63;98299.34;5016164;28;20277;-79
2024/01/03 08:46:50;;;;;;;2.60;0.63;;;;;;;11.23;75.27;98304.75;5014610;28;20256;-79
2024/01/03 08:49:17;;;;;;;1.00;0.50;;;;;;;11.40;75.13;98293.34;5014988;28;20207;-79
2024/01/03 08:51:45;;;;;;;1.63;0.63;;;;;;;11.42;75.66;98288.06;5015687;28;20207;-78
2024/01/03 08:54:11;;;;;;;1.83;0.70;;;;;;;11.12;77.29;98266.19;5015323;28;20226;-78
2024/01/03 08:56:39;;;;;;;2.10;0.60;;;;;;;11.28;77.33;98244.44;5015055;28;20370;-78
2024/01/03 08:59:06;;;;;;;2.73;0.60;;;;;;;11.44;77.36;98226.09;5014870;28;20209;-79
2024/01/03 09:01:34;;;;;;;2.70;0.70;;;;;;;11.21;77.12;98232.66;5015316;28;20626;-78
2024/01/03 09:04:01;;;;;;;2.63;0.70;;;;;;;11.42;77.43;98209.69;5011614;28;20214;-77
2024/01/03 09:06:27;;;;;;;2.40;0.90;;;;;;;11.48;76.65;98236.28;5013968;28;20230;-77
2024/01/03 09:08:54;;;;;;;2.57;0.47;;;;;;;11.18;75.51;98251.94;5014468;28;20214;-78
2024/01/03 09:11:26;;;;;;;2.37;0.50;;;;;;;11.44;75.64;98260.06;5015098;28;20203;-77
2024/01/03 09:13:56;;;;;;;0.90;0.47;;;;;;;11.39;74.99;98269.94;5012869;28;20232;-76
2024/01/03 09:16:24;;;;;;;1.50;0.60;;;;;;;11.55;75.26;98291.63;5012910;28;20214;-77
2024/01/03 09:18:50;;;;;;;2.37;0.83;;;;;;;11.21;75.50;98311.81;5010989;28;20203;-77
2024/01/03 09:21:17;;;;;;;1.07;0.87;;;;;;;11.52;75.28;98291.81;5012375;28;20210;-77
2024/01/03 09:23:43;;;;;;;1.63;0.40;;;;;;;11.64;75.33;98296.31;5014285;28;20207;-79
2024/01/03 09:26:10;;;;;;;0.70;0.50;;;;;;;11.51;75.28;98304.00;5014751;28;20283;-80
2024/01/03 09:28:38;;;;;;;1.47;0.43;;;;;;;11.46;75.40;98313.06;5012699;28;20231;-78
2024/01/03 09:31:06;;;;;;;1.70;1.13;;;;;;;11.68;75.26;98282.16;5010719;28;20227;-76
2024/01/03 09:33:33;;;;;;;0.80;0.57;;;;;;;11.79;75.09;98291.97;5010721;28;20222;-79
2024/01/03 09:36:00;;;;;;;2.00;1.87;;;;;;;11.74;75.58;98307.09;5012457;28;20224;-79
2024/01/03 09:38:26;;;;;;;1.13;0.50;;;;;;;11.59;75.92;98295.75;5012554;28;20203;-79
2024/01/03 09:40:53;;;;;;;1.47;0.50;;;;;;;11.70;75.13;98293.34;5012693;28;20211;-80
2024/01/03 09:43:20;;;;;;;1.27;0.87;;;;;;;11.50;76.21;98293.66;5013617;28;20243;-79
2024/01/03 09:45:47;;;;;;;1.73;0.50;;;;;;;11.52;77.41;98263.06;5013859;28;20222;-79
2024/01/03 09:48:15;;;;;;;1.10;0.73;;;;;;;11.69;78.23;98238.56;5013565;28;20668;-79
2024/01/03 09:50:42;;;;;;;0.70;0.50;;;;;;;11.52;80.26;98219.50;5014208;28;20207;-79
2024/01/03 09:53:11;;;;;;;1.43;0.47;;;;;;;11.43;83.02;98139.03;5014479;28;20490;-79
2024/01/03 09:55:38;;;;;;;1.27;0.50;;;;;;;10.87;86.46;98059.69;5013423;28;20265;-79
2024/01/03 09:58:05;;;;;;;0.97;0.60;;;;;;;10.76;89.71;97942.03;5013990;28;20249;-79
2024/01/03 10:00:33;;;;;;;3.50;0.80;;;;;;;10.92;90.83;97888.84;5013907;28;20230;-79
2024/01/03 10:03:03;;;;;;;2.53;0.70;;;;;;;10.78;92.54;97861.91;5014039;28;20662;-79
2024/01/03 10:05:30;;;;;;;3.23;0.70;;;;;;;11.01;92.10;97839.59;5014208;28;20660;-78
2024/01/03 10:07:57;;;;;;;1.43;0.60;;;;;;;10.94;91.64;97831.31;5014182;28;20265;-79
2024/01/03 10:10:33;;;;;;;4.87;1.00;;;;;;;11.09;91.41;97832.13;5014873;28;20210;-79
2024/01/03 10:13:13;;;;;;;2.57;0.87;;;;;;;11.16;90.80;97835.19;5014121;28;20245;-79
2024/01/03 10:15:40;;;;;;;2.73;0.70;;;;;;;11.13;90.46;97844.06;5014124;28;20225;-79
2024/01/03 10:18:08;;;;;;;0.67;0.57;;;;;;;10.95;91.65;97843.44;5013954;28;20207;-79
2024/01/03 10:20:36;;;;;;;2.20;0.60;;;;;;;10.91;92.17;97821.91;5014169;28;20585;-79
2024/01/03 10:23:07;;;;;;;1.57;0.70;;;;;;;10.88;91.40;97832.56;5014039;28;20199;-79
2024/01/03 10:25:34;;;;;;;2.43;1.00;;;;;;;11.03;90.86;97835.97;5013615;28;20273;-79
2024/01/03 10:28:01;;;;;;;3.47;0.70;;;;;;;11.00;89.29;97874.47;5014024;28;20211;-79
2024/01/03 10:30:28;;;;;;;2.60;0.90;;;;;;;10.57;90.03;97892.75;5014294;28;20198;-80
2024/01/03 10:32:58;;;;;;;2.53;0.90;;;;;;;10.59;91.12;97875.25;5010090;28;20655;-79
2024/01/03 10:35:27;;;;;;;3.33;1.03;;;;;;;10.78;92.06;97854.06;5015817;28;20305;-78
2024/01/03 10:37:55;;;;;;;2.57;1.00;;;;;;;10.60;93.17;97854.25;5017662;28;20202;-79
2024/01/03 10:40:23;;;;;;;3.53;1.17;;;;;;;10.61;96.38;97818.59;5016769;28;20576;-79
2024/01/03 10:42:51;;;;;;;5.00;1.47;;;;;;;10.09;100.00;97792.09;5017470;28;20214;-80
2024/01/03 10:45:18;;;;;;;4.50;1.13;;;;;;;10.17;100.00;97694.34;5017318;28;20265;-80
2024/01/03 10:47:44;;;;;;;1.90;0.70;;;;;;;9.80;100.00;97712.22;5017060;28;20206;-78
2024/01/03 10:50:11;;;;;;;3.27;0.67;;;;;;;9.72;100.00;97718.72;5017666;28;20289;-80
2024/01/03 10:52:38;;;;;;;1.67;0.87;;;;;;;9.73;100.00;97725.63;5016807;28;20207;-79
2024/01/03 10:55:07;;;;;;;1.27;0.70;;;;;;;9.79;98.91;97711.38;5017076;28;20199;-79
2024/01/03 10:57:36;;;;;;;1.33;0.40;;;;;;;9.87;97.47;97742.16;5016618;28;20611;-80
2024/01/03 11:00:12;;;;;;;2.00;0.70;;;;;;;10.06;96.99;97773.19;5017230;28;20287;-80
2024/01/03 11:02:47;;;;;;;1.27;0.50;;;;;;;10.06;97.79;97771.41;5017335;28;20206;-79
2024/01/03 11:05:22;;;;;;;1.40;0.50;;;;;;;9.90;95.59;97794.94;5016762;28;20210;-78
2024/01/03 11:07:53;;;;;;;1.40;0.47;;;;;;;10.07;95.64;97804.38;5016782;28;20245;-79
2024/01/03 11:10:50;;;;;;;1.67;0.77;;;;;;;9.79;96.62;97836.44;5017549;28;20211;-79
2024/01/03 11:13:27;;;;;;;1.73;0.70;;;;;;;9.81;95.80;97818.94;5017140;28;20227;-78
2024/01/03 11:15:54;;;;;;;2.57;1.37;;;;;;;10.01;95.92;97824.72;5016342;28;20593;-79
2024/01/03 11:18:53;;;;;;;5.23;1.40;;;;;;;9.69;96.63;97825.69;5015847;28;20209;-78
2024/01/03 11:21:43;;;;;;;2.80;1.00;;;;;;;9.86;97.00;97809.09;5016584;28;20203;-78
2024/01/03 11:24:56;;;;;;;1.43;0.60;;;;;;;9.78;95.86;97818.28;5016101;28;20211;-78
2024/01/03 11:27:24;;;;;;;2.30;0.70;;;;;;;10.14;96.39;97821.31;5016528;28;20689;-79
2024/01/03 11:29:53;;;;;;;1.53;0.57;;;;;;;10.38;95.17;97835.63;5016735;28;20219;-78
2024/01/03 11:32:31;;;;;;;2.37;0.60;;;;;;;10.43;94.02;97864.88;5015208;28;20254;-78
2024/01/03 11:34:59;;;;;;;2.60;0.80;;;;;;;10.35;94.26;97891.41;5008028;28;20251;-79
2024/01/03 11:37:34;;;;;;;0.60;0.47;;;;;;;10.13;94.01;97894.41;5016437;28;20199;-79